sensor_id;sensor_type;location;lat;lon;timestamp;P1;durP1;ratioP1;P2;durP2;ratioP2
22656;SDS011;11495;55.610;12.100;2023-04-06T00:00:07;0.57;;;0.40;;
22656;SDS011;11495;55.610;12.100;2023-04-06T00:02:34;0.80;;;0.60;;
22656;SDS011;11495;55.610;12.100;2023-04-06T00:04:59;4.62;;;1.08;;
22656;SDS011;11495;55.610;12.100;2023-04-06T00:07:24;1.12;;;0.93;;
22656;SDS011;11495;55.610;12.100;2023-04-06T00:09:50;0.90;;;0.68;;
22656;SDS011;11495;55.610;12.100;2023-04-06T00:12:15;1.12;;;0.73;;
22656;SDS011;11495;55.610;12.100;2023-04-06T00:14:40;1.27;;;0.83;;
22656;SDS011;11495;55.610;12.100;2023-04-06T00:17:05;0.50;;;0.40;;
22656;SDS011;11495;55.610;12.100;2023-04-06T00:19:31;1.00;;;0.50;;
22656;SDS011;11495;55.610;12.100;2023-04-06T00:21:56;0.88;;;0.40;;
22656;SDS011;11495;55.610;12.100;2023-04-06T00:24:22;0.50;;;0.50;;
22656;SDS011;11495;55.610;12.100;2023-04-06T00:26:47;1.00;;;0.63;;
22656;SDS011;11495;55.610;12.100;2023-04-06T00:29:12;1.05;;;0.52;;
22656;SDS011;11495;55.610;12.100;2023-04-06T00:31:37;0.50;;;0.30;;
22656;SDS011;11495;55.610;12.100;2023-04-06T00:34:02;0.57;;;0.50;;
22656;SDS011;11495;55.610;12.100;2023-04-06T00:36:28;1.17;;;0.70;;
22656;SDS011;11495;55.610;12.100;2023-04-06T00:38:54;0.52;;;0.35;;
22656;SDS011;11495;55.610;12.100;2023-04-06T00:41:20;1.35;;;0.70;;
22656;SDS011;11495;55.610;12.100;2023-04-06T00:43:45;1.23;;;0.65;;
22656;SDS011;11495;55.610;12.100;2023-04-06T00:46:10;1.55;;;0.80;;
22656;SDS011;11495;55.610;12.100;2023-04-06T00:48:36;0.50;;;0.50;;
22656;SDS011;11495;55.610;12.100;2023-04-06T00:51:01;0.40;;;0.40;;
22656;SDS011;11495;55.610;12.100;2023-04-06T00:53:26;0.52;;;0.47;;
22656;SDS011;11495;55.610;12.100;2023-04-06T00:55:52;2.28;;;0.82;;
22656;SDS011;11495;55.610;12.100;2023-04-06T00:58:17;2.10;;;0.63;;
22656;SDS011;11495;55.610;12.100;2023-04-06T01:00:42;1.70;;;0.80;;
22656;SDS011;11495;55.610;12.100;2023-04-06T01:03:07;1.30;;;0.47;;
22656;SDS011;11495;55.610;12.100;2023-04-06T01:07:58;1.17;;;0.85;;
22656;SDS011;11495;55.610;12.100;2023-04-06T01:10:24;1.40;;;0.90;;
22656;SDS011;11495;55.610;12.100;2023-04-06T01:12:49;1.12;;;0.85;;
22656;SDS011;11495;55.610;12.100;2023-04-06T01:15:15;3.65;;;0.75;;
22656;SDS011;11495;55.610;12.100;2023-04-06T01:17:40;1.45;;;0.70;;
22656;SDS011;11495;55.610;12.100;2023-04-06T01:20:06;0.50;;;0.50;;
22656;SDS011;11495;55.610;12.100;2023-04-06T01:22:32;0.85;;;0.60;;
22656;SDS011;11495;55.610;12.100;2023-04-06T01:24:57;0.90;;;0.60;;
22656;SDS011;11495;55.610;12.100;2023-04-06T01:27:22;0.73;;;0.47;;
22656;SDS011;11495;55.610;12.100;2023-04-06T01:29:48;1.65;;;0.82;;
22656;SDS011;11495;55.610;12.100;2023-04-06T01:32:13;1.23;;;0.80;;
22656;SDS011;11495;55.610;12.100;2023-04-06T01:34:38;2.00;;;0.90;;
22656;SDS011;11495;55.610;12.100;2023-04-06T01:37:04;1.30;;;0.70;;
22656;SDS011;11495;55.610;12.100;2023-04-06T01:39:29;2.45;;;0.90;;
22656;SDS011;11495;55.610;12.100;2023-04-06T01:41:55;0.80;;;0.70;;
22656;SDS011;11495;55.610;12.100;2023-04-06T01:44:20;1.60;;;0.70;;
22656;SDS011;11495;55.610;12.100;2023-04-06T01:46:45;1.53;;;0.90;;
22656;SDS011;11495;55.610;12.100;2023-04-06T01:49:11;1.30;;;0.82;;
22656;SDS011;11495;55.610;12.100;2023-04-06T01:51:36;2.65;;;1.25;;
22656;SDS011;11495;55.610;12.100;2023-04-06T01:54:02;1.63;;;1.10;;
22656;SDS011;11495;55.610;12.100;2023-04-06T01:56:27;1.60;;;1.33;;
22656;SDS011;11495;55.610;12.100;2023-04-06T01:58:52;2.95;;;1.23;;
22656;SDS011;11495;55.610;12.100;2023-04-06T02:01:17;1.87;;;1.20;;
22656;SDS011;11495;55.610;12.100;2023-04-06T02:03:43;1.73;;;1.10;;
22656;SDS011;11495;55.610;12.100;2023-04-06T02:06:08;1.67;;;1.10;;
22656;SDS011;11495;55.610;12.100;2023-04-06T02:08:33;1.70;;;1.15;;
22656;SDS011;11495;55.610;12.100;2023-04-06T02:10:58;2.23;;;1.40;;
22656;SDS011;11495;55.610;12.100;2023-04-06T02:13:24;3.65;;;1.67;;
22656;SDS011;11495;55.610;12.100;2023-04-06T02:15:49;3.60;;;1.60;;
22656;SDS011;11495;55.610;12.100;2023-04-06T02:18:14;4.70;;;1.75;;
22656;SDS011;11495;55.610;12.100;2023-04-06T02:20:40;3.85;;;2.00;;
22656;SDS011;11495;55.610;12.100;2023-04-06T02:23:05;2.97;;;1.70;;
22656;SDS011;11495;55.610;12.100;2023-04-06T02:25:30;4.43;;;2.00;;
22656;SDS011;11495;55.610;12.100;2023-04-06T02:30:21;2.08;;;1.48;;
22656;SDS011;11495;55.610;12.100;2023-04-06T02:32:46;1.65;;;1.27;;
22656;SDS011;11495;55.610;12.100;2023-04-06T02:35:11;1.63;;;1.40;;
22656;SDS011;11495;55.610;12.100;2023-04-06T02:37:36;2.92;;;2.05;;
22656;SDS011;11495;55.610;12.100;2023-04-06T02:40:02;3.92;;;2.45;;
22656;SDS011;11495;55.610;12.100;2023-04-06T02:42:27;5.07;;;2.53;;
22656;SDS011;11495;55.610;12.100;2023-04-06T02:44:52;5.20;;;2.90;;
22656;SDS011;11495;55.610;12.100;2023-04-06T02:47:17;3.53;;;2.13;;
22656;SDS011;11495;55.610;12.100;2023-04-06T02:49:43;3.67;;;2.00;;
22656;SDS011;11495;55.610;12.100;2023-04-06T02:52:08;3.73;;;2.10;;
22656;SDS011;11495;55.610;12.100;2023-04-06T02:54:33;9.20;;;3.30;;
22656;SDS011;11495;55.610;12.100;2023-04-06T02:56:58;4.60;;;3.03;;
22656;SDS011;11495;55.610;12.100;2023-04-06T02:59:24;4.78;;;2.70;;
22656;SDS011;11495;55.610;12.100;2023-04-06T03:01:49;10.73;;;4.50;;
22656;SDS011;11495;55.610;12.100;2023-04-06T03:04:15;6.32;;;3.78;;
22656;SDS011;11495;55.610;12.100;2023-04-06T03:06:40;6.05;;;4.15;;
22656;SDS011;11495;55.610;12.100;2023-04-06T03:09:06;9.63;;;5.90;;
22656;SDS011;11495;55.610;12.100;2023-04-06T03:11:31;11.63;;;5.90;;
22656;SDS011;11495;55.610;12.100;2023-04-06T03:13:59;14.30;;;7.60;;
22656;SDS011;11495;55.610;12.100;2023-04-06T03:16:24;13.15;;;8.35;;
22656;SDS011;11495;55.610;12.100;2023-04-06T03:18:50;18.77;;;8.03;;
22656;SDS011;11495;55.610;12.100;2023-04-06T03:21:15;16.97;;;8.80;;
22656;SDS011;11495;55.610;12.100;2023-04-06T03:23:41;15.60;;;8.20;;
22656;SDS011;11495;55.610;12.100;2023-04-06T03:26:06;17.05;;;8.75;;
22656;SDS011;11495;55.610;12.100;2023-04-06T03:28:31;11.77;;;6.70;;
22656;SDS011;11495;55.610;12.100;2023-04-06T03:30:56;12.88;;;7.65;;
22656;SDS011;11495;55.610;12.100;2023-04-06T03:33:22;18.67;;;9.35;;
22656;SDS011;11495;55.610;12.100;2023-04-06T03:35:47;16.27;;;9.13;;
22656;SDS011;11495;55.610;12.100;2023-04-06T03:38:12;19.45;;;8.82;;
22656;SDS011;11495;55.610;12.100;2023-04-06T03:40:37;14.67;;;8.00;;
22656;SDS011;11495;55.610;12.100;2023-04-06T03:43:03;18.58;;;9.82;;
22656;SDS011;11495;55.610;12.100;2023-04-06T03:45:29;17.95;;;10.75;;
22656;SDS011;11495;55.610;12.100;2023-04-06T03:47:54;15.00;;;8.10;;
22656;SDS011;11495;55.610;12.100;2023-04-06T03:50:20;17.20;;;10.43;;
22656;SDS011;11495;55.610;12.100;2023-04-06T03:52:45;22.05;;;11.40;;
22656;SDS011;11495;55.610;12.100;2023-04-06T03:55:10;17.23;;;9.50;;
22656;SDS011;11495;55.610;12.100;2023-04-06T03:57:35;15.57;;;9.17;;
22656;SDS011;11495;55.610;12.100;2023-04-06T04:00:02;17.30;;;9.18;;
22656;SDS011;11495;55.610;12.100;2023-04-06T04:02:28;20.15;;;10.93;;
22656;SDS011;11495;55.610;12.100;2023-04-06T04:04:53;21.13;;;9.40;;
22656;SDS011;11495;55.610;12.100;2023-04-06T04:07:18;19.13;;;10.40;;
22656;SDS011;11495;55.610;12.100;2023-04-06T04:09:43;19.67;;;9.07;;
22656;SDS011;11495;55.610;12.100;2023-04-06T04:12:08;13.87;;;8.00;;
22656;SDS011;11495;55.610;12.100;2023-04-06T04:14:34;18.10;;;10.50;;
22656;SDS011;11495;55.610;12.100;2023-04-06T04:16:59;20.60;;;10.80;;
22656;SDS011;11495;55.610;12.100;2023-04-06T04:19:25;19.98;;;11.15;;
22656;SDS011;11495;55.610;12.100;2023-04-06T04:21:50;18.87;;;11.10;;
22656;SDS011;11495;55.610;12.100;2023-04-06T04:24:15;24.58;;;12.80;;
22656;SDS011;11495;55.610;12.100;2023-04-06T04:26:40;27.45;;;13.80;;
22656;SDS011;11495;55.610;12.100;2023-04-06T04:29:06;19.73;;;11.53;;
22656;SDS011;11495;55.610;12.100;2023-04-06T04:31:31;20.05;;;10.70;;
22656;SDS011;11495;55.610;12.100;2023-04-06T04:33:57;21.98;;;12.48;;
22656;SDS011;11495;55.610;12.100;2023-04-06T04:36:22;23.27;;;12.73;;
22656;SDS011;11495;55.610;12.100;2023-04-06T04:38:49;17.85;;;10.93;;
22656;SDS011;11495;55.610;12.100;2023-04-06T04:41:14;23.17;;;12.88;;
22656;SDS011;11495;55.610;12.100;2023-04-06T04:43:40;20.80;;;11.63;;
22656;SDS011;11495;55.610;12.100;2023-04-06T04:46:05;22.80;;;12.93;;
22656;SDS011;11495;55.610;12.100;2023-04-06T04:48:31;20.92;;;11.85;;
22656;SDS011;11495;55.610;12.100;2023-04-06T04:50:57;20.52;;;11.57;;
22656;SDS011;11495;55.610;12.100;2023-04-06T04:53:22;23.77;;;13.40;;
22656;SDS011;11495;55.610;12.100;2023-04-06T04:55:47;23.60;;;12.85;;
22656;SDS011;11495;55.610;12.100;2023-04-06T04:58:12;21.48;;;12.55;;
22656;SDS011;11495;55.610;12.100;2023-04-06T05:00:47;22.50;;;13.60;;
22656;SDS011;11495;55.610;12.100;2023-04-06T05:03:14;19.65;;;12.05;;
22656;SDS011;11495;55.610;12.100;2023-04-06T05:05:41;22.67;;;13.30;;
22656;SDS011;11495;55.610;12.100;2023-04-06T05:08:07;19.25;;;12.30;;
22656;SDS011;11495;55.610;12.100;2023-04-06T05:10:32;24.40;;;12.18;;
22656;SDS011;11495;55.610;12.100;2023-04-06T05:12:58;23.60;;;13.27;;
22656;SDS011;11495;55.610;12.100;2023-04-06T05:15:23;20.92;;;12.65;;
22656;SDS011;11495;55.610;12.100;2023-04-06T05:17:48;17.20;;;9.88;;
22656;SDS011;11495;55.610;12.100;2023-04-06T05:20:14;19.58;;;12.45;;
22656;SDS011;11495;55.610;12.100;2023-04-06T05:22:39;20.60;;;12.40;;
22656;SDS011;11495;55.610;12.100;2023-04-06T05:25:05;18.27;;;10.60;;
22656;SDS011;11495;55.610;12.100;2023-04-06T05:27:30;20.75;;;12.48;;
22656;SDS011;11495;55.610;12.100;2023-04-06T05:29:55;25.98;;;13.73;;
22656;SDS011;11495;55.610;12.100;2023-04-06T05:32:21;20.23;;;11.32;;
22656;SDS011;11495;55.610;12.100;2023-04-06T05:34:47;20.27;;;12.10;;
22656;SDS011;11495;55.610;12.100;2023-04-06T05:37:13;15.82;;;9.82;;
22656;SDS011;11495;55.610;12.100;2023-04-06T05:39:38;18.83;;;10.73;;
22656;SDS011;11495;55.610;12.100;2023-04-06T05:42:04;22.63;;;12.50;;
22656;SDS011;11495;55.610;12.100;2023-04-06T05:44:30;18.30;;;11.10;;
22656;SDS011;11495;55.610;12.100;2023-04-06T05:46:55;16.55;;;10.77;;
22656;SDS011;11495;55.610;12.100;2023-04-06T05:49:21;15.60;;;10.07;;
22656;SDS011;11495;55.610;12.100;2023-04-06T05:51:46;15.60;;;10.37;;
22656;SDS011;11495;55.610;12.100;2023-04-06T05:54:11;21.17;;;11.25;;
22656;SDS011;11495;55.610;12.100;2023-04-06T05:56:40;13.90;;;8.48;;
22656;SDS011;11495;55.610;12.100;2023-04-06T05:59:06;17.15;;;11.12;;
22656;SDS011;11495;55.610;12.100;2023-04-06T06:01:31;16.60;;;8.85;;
22656;SDS011;11495;55.610;12.100;2023-04-06T06:03:57;12.25;;;7.45;;
22656;SDS011;11495;55.610;12.100;2023-04-06T06:06:22;16.48;;;10.40;;
22656;SDS011;11495;55.610;12.100;2023-04-06T06:08:48;15.50;;;9.98;;
22656;SDS011;11495;55.610;12.100;2023-04-06T06:11:13;16.17;;;9.73;;
22656;SDS011;11495;55.610;12.100;2023-04-06T06:13:38;18.35;;;10.38;;
22656;SDS011;11495;55.610;12.100;2023-04-06T06:16:04;18.27;;;9.85;;
22656;SDS011;11495;55.610;12.100;2023-04-06T06:18:30;15.65;;;9.82;;
22656;SDS011;11495;55.610;12.100;2023-04-06T06:20:55;22.35;;;13.43;;
22656;SDS011;11495;55.610;12.100;2023-04-06T06:23:20;18.55;;;10.23;;
22656;SDS011;11495;55.610;12.100;2023-04-06T06:25:46;16.80;;;10.50;;
22656;SDS011;11495;55.610;12.100;2023-04-06T06:28:11;17.23;;;10.30;;
22656;SDS011;11495;55.610;12.100;2023-04-06T06:30:36;14.50;;;9.77;;
22656;SDS011;11495;55.610;12.100;2023-04-06T06:33:01;15.20;;;9.23;;
22656;SDS011;11495;55.610;12.100;2023-04-06T06:35:27;12.68;;;9.20;;
22656;SDS011;11495;55.610;12.100;2023-04-06T06:37:52;12.83;;;8.20;;
22656;SDS011;11495;55.610;12.100;2023-04-06T06:40:17;13.40;;;6.93;;
22656;SDS011;11495;55.610;12.100;2023-04-06T06:42:42;7.65;;;6.03;;
22656;SDS011;11495;55.610;12.100;2023-04-06T06:45:08;6.93;;;5.10;;
22656;SDS011;11495;55.610;12.100;2023-04-06T06:47:33;8.80;;;4.37;;
22656;SDS011;11495;55.610;12.100;2023-04-06T06:49:59;5.78;;;4.12;;
22656;SDS011;11495;55.610;12.100;2023-04-06T06:52:24;11.00;;;4.33;;
22656;SDS011;11495;55.610;12.100;2023-04-06T06:54:49;6.62;;;4.12;;
22656;SDS011;11495;55.610;12.100;2023-04-06T06:59:46;4.95;;;3.72;;
22656;SDS011;11495;55.610;12.100;2023-04-06T07:02:12;7.60;;;3.72;;
22656;SDS011;11495;55.610;12.100;2023-04-06T07:04:37;5.57;;;3.07;;
22656;SDS011;11495;55.610;12.100;2023-04-06T07:07:02;4.15;;;3.40;;
22656;SDS011;11495;55.610;12.100;2023-04-06T07:09:28;4.65;;;3.58;;
22656;SDS011;11495;55.610;12.100;2023-04-06T07:11:54;5.20;;;3.17;;
22656;SDS011;11495;55.610;12.100;2023-04-06T07:14:19;4.18;;;2.62;;
22656;SDS011;11495;55.610;12.100;2023-04-06T07:16:44;12.23;;;2.83;;
22656;SDS011;11495;55.610;12.100;2023-04-06T07:19:10;7.32;;;3.72;;
22656;SDS011;11495;55.610;12.100;2023-04-06T07:21:35;4.18;;;2.78;;
22656;SDS011;11495;55.610;12.100;2023-04-06T07:24:01;5.50;;;3.20;;
22656;SDS011;11495;55.610;12.100;2023-04-06T07:26:26;4.53;;;2.95;;
22656;SDS011;11495;55.610;12.100;2023-04-06T07:28:52;8.00;;;3.10;;
22656;SDS011;11495;55.610;12.100;2023-04-06T07:31:17;5.00;;;2.77;;
22656;SDS011;11495;55.610;12.100;2023-04-06T07:33:42;6.40;;;2.67;;
22656;SDS011;11495;55.610;12.100;2023-04-06T07:36:07;5.47;;;2.92;;
22656;SDS011;11495;55.610;12.100;2023-04-06T07:38:36;5.85;;;2.97;;
22656;SDS011;11495;55.610;12.100;2023-04-06T07:41:01;4.90;;;2.50;;
22656;SDS011;11495;55.610;12.100;2023-04-06T07:43:28;4.37;;;2.25;;
22656;SDS011;11495;55.610;12.100;2023-04-06T07:45:54;3.15;;;2.15;;
22656;SDS011;11495;55.610;12.100;2023-04-06T07:48:20;4.90;;;2.70;;
22656;SDS011;11495;55.610;12.100;2023-04-06T07:50:49;4.68;;;2.33;;
22656;SDS011;11495;55.610;12.100;2023-04-06T07:53:14;4.05;;;2.60;;
22656;SDS011;11495;55.610;12.100;2023-04-06T07:55:40;4.25;;;2.12;;
22656;SDS011;11495;55.610;12.100;2023-04-06T07:58:05;2.87;;;2.03;;
22656;SDS011;11495;55.610;12.100;2023-04-06T08:00:30;4.50;;;1.95;;
22656;SDS011;11495;55.610;12.100;2023-04-06T08:02:56;2.60;;;1.60;;
22656;SDS011;11495;55.610;12.100;2023-04-06T08:05:21;3.03;;;1.83;;
22656;SDS011;11495;55.610;12.100;2023-04-06T08:07:46;5.60;;;1.90;;
22656;SDS011;11495;55.610;12.100;2023-04-06T08:10:11;15.33;;;11.13;;
22656;SDS011;11495;55.610;12.100;2023-04-06T08:12:36;5.07;;;2.53;;
22656;SDS011;11495;55.610;12.100;2023-04-06T08:15:02;3.03;;;2.00;;
22656;SDS011;11495;55.610;12.100;2023-04-06T08:17:28;2.72;;;1.80;;
22656;SDS011;11495;55.610;12.100;2023-04-06T08:19:55;2.33;;;1.92;;
22656;SDS011;11495;55.610;12.100;2023-04-06T08:22:20;2.65;;;1.75;;
22656;SDS011;11495;55.610;12.100;2023-04-06T08:24:46;4.53;;;2.03;;
22656;SDS011;11495;55.610;12.100;2023-04-06T08:27:11;4.63;;;1.87;;
22656;SDS011;11495;55.610;12.100;2023-04-06T08:29:38;3.22;;;1.70;;
22656;SDS011;11495;55.610;12.100;2023-04-06T08:32:03;4.37;;;1.92;;
22656;SDS011;11495;55.610;12.100;2023-04-06T08:34:30;6.97;;;2.20;;
22656;SDS011;11495;55.610;12.100;2023-04-06T08:36:55;4.65;;;2.28;;
22656;SDS011;11495;55.610;12.100;2023-04-06T08:39:20;6.10;;;2.00;;
22656;SDS011;11495;55.610;12.100;2023-04-06T08:41:50;3.03;;;1.52;;
22656;SDS011;11495;55.610;12.100;2023-04-06T08:44:16;3.30;;;1.85;;
22656;SDS011;11495;55.610;12.100;2023-04-06T08:46:42;3.95;;;2.22;;
22656;SDS011;11495;55.610;12.100;2023-04-06T08:49:07;5.32;;;1.87;;
22656;SDS011;11495;55.610;12.100;2023-04-06T08:51:33;2.42;;;1.67;;
22656;SDS011;11495;55.610;12.100;2023-04-06T08:54:00;3.15;;;2.12;;
22656;SDS011;11495;55.610;12.100;2023-04-06T08:56:26;5.77;;;2.43;;
22656;SDS011;11495;55.610;12.100;2023-04-06T08:58:52;2.20;;;1.62;;
22656;SDS011;11495;55.610;12.100;2023-04-06T09:01:17;4.78;;;1.75;;
22656;SDS011;11495;55.610;12.100;2023-04-06T09:03:43;2.72;;;1.85;;
22656;SDS011;11495;55.610;12.100;2023-04-06T09:06:09;2.80;;;1.80;;
22656;SDS011;11495;55.610;12.100;2023-04-06T09:08:35;3.50;;;1.80;;
22656;SDS011;11495;55.610;12.100;2023-04-06T09:11:01;3.87;;;2.00;;
22656;SDS011;11495;55.610;12.100;2023-04-06T09:13:26;2.47;;;1.85;;
22656;SDS011;11495;55.610;12.100;2023-04-06T09:15:58;3.40;;;1.67;;
22656;SDS011;11495;55.610;12.100;2023-04-06T09:18:33;4.20;;;2.08;;
22656;SDS011;11495;55.610;12.100;2023-04-06T09:20:59;5.40;;;1.87;;
22656;SDS011;11495;55.610;12.100;2023-04-06T09:23:25;4.25;;;2.60;;
22656;SDS011;11495;55.610;12.100;2023-04-06T09:25:50;3.83;;;2.00;;
22656;SDS011;11495;55.610;12.100;2023-04-06T09:28:15;4.60;;;2.43;;
22656;SDS011;11495;55.610;12.100;2023-04-06T09:30:47;3.77;;;2.30;;
22656;SDS011;11495;55.610;12.100;2023-04-06T09:33:12;6.30;;;2.80;;
22656;SDS011;11495;55.610;12.100;2023-04-06T09:35:38;5.05;;;2.10;;
22656;SDS011;11495;55.610;12.100;2023-04-06T09:38:10;2.43;;;1.67;;
22656;SDS011;11495;55.610;12.100;2023-04-06T09:40:35;4.22;;;2.45;;
22656;SDS011;11495;55.610;12.100;2023-04-06T09:43:00;4.32;;;2.35;;
22656;SDS011;11495;55.610;12.100;2023-04-06T09:45:28;5.07;;;2.25;;
22656;SDS011;11495;55.610;12.100;2023-04-06T09:47:54;5.35;;;1.98;;
22656;SDS011;11495;55.610;12.100;2023-04-06T09:50:21;2.78;;;1.95;;
22656;SDS011;11495;55.610;12.100;2023-04-06T09:52:47;4.35;;;2.10;;
22656;SDS011;11495;55.610;12.100;2023-04-06T09:55:35;3.80;;;2.25;;
22656;SDS011;11495;55.610;12.100;2023-04-06T10:00:27;4.13;;;2.07;;
22656;SDS011;11495;55.610;12.100;2023-04-06T10:05:40;3.20;;;1.87;;
22656;SDS011;11495;55.610;12.100;2023-04-06T10:08:08;3.85;;;2.75;;
22656;SDS011;11495;55.610;12.100;2023-04-06T10:10:34;3.55;;;2.45;;
22656;SDS011;11495;55.610;12.100;2023-04-06T10:12:59;3.90;;;2.92;;
22656;SDS011;11495;55.610;12.100;2023-04-06T10:15:25;4.87;;;2.80;;
22656;SDS011;11495;55.610;12.100;2023-04-06T10:17:50;4.93;;;2.85;;
22656;SDS011;11495;55.610;12.100;2023-04-06T10:23:04;5.07;;;2.40;;
22656;SDS011;11495;55.610;12.100;2023-04-06T10:25:30;4.85;;;2.80;;
22656;SDS011;11495;55.610;12.100;2023-04-06T10:28:00;4.10;;;2.83;;
22656;SDS011;11495;55.610;12.100;2023-04-06T10:30:25;4.97;;;2.60;;
22656;SDS011;11495;55.610;12.100;2023-04-06T10:32:51;8.07;;;2.80;;
22656;SDS011;11495;55.610;12.100;2023-04-06T10:35:16;2.87;;;2.10;;
22656;SDS011;11495;55.610;12.100;2023-04-06T10:37:49;4.75;;;2.72;;
22656;SDS011;11495;55.610;12.100;2023-04-06T10:40:19;3.60;;;2.30;;
22656;SDS011;11495;55.610;12.100;2023-04-06T10:42:44;5.75;;;2.80;;
22656;SDS011;11495;55.610;12.100;2023-04-06T10:45:18;6.43;;;2.22;;
22656;SDS011;11495;55.610;12.100;2023-04-06T10:47:44;4.55;;;2.80;;
22656;SDS011;11495;55.610;12.100;2023-04-06T10:50:10;7.93;;;2.90;;
22656;SDS011;11495;55.610;12.100;2023-04-06T10:52:37;5.20;;;3.40;;
22656;SDS011;11495;55.610;12.100;2023-04-06T10:55:03;8.65;;;3.20;;
22656;SDS011;11495;55.610;12.100;2023-04-06T10:57:28;5.25;;;2.83;;
22656;SDS011;11495;55.610;12.100;2023-04-06T10:59:54;9.70;;;3.37;;
22656;SDS011;11495;55.610;12.100;2023-04-06T11:02:19;4.70;;;2.70;;
22656;SDS011;11495;55.610;12.100;2023-04-06T11:04:53;6.10;;;2.75;;
22656;SDS011;11495;55.610;12.100;2023-04-06T11:07:22;4.60;;;2.37;;
22656;SDS011;11495;55.610;12.100;2023-04-06T11:09:49;4.30;;;2.80;;
22656;SDS011;11495;55.610;12.100;2023-04-06T11:12:21;5.53;;;3.28;;
22656;SDS011;11495;55.610;12.100;2023-04-06T11:14:56;5.82;;;3.42;;
22656;SDS011;11495;55.610;12.100;2023-04-06T11:17:27;6.05;;;3.30;;
22656;SDS011;11495;55.610;12.100;2023-04-06T11:19:53;6.12;;;3.37;;
22656;SDS011;11495;55.610;12.100;2023-04-06T11:22:18;7.37;;;3.83;;
22656;SDS011;11495;55.610;12.100;2023-04-06T11:24:43;3.50;;;3.03;;
22656;SDS011;11495;55.610;12.100;2023-04-06T11:27:08;4.83;;;3.27;;
22656;SDS011;11495;55.610;12.100;2023-04-06T11:29:34;6.22;;;3.12;;
22656;SDS011;11495;55.610;12.100;2023-04-06T11:32:05;7.10;;;4.20;;
22656;SDS011;11495;55.610;12.100;2023-04-06T11:34:38;5.57;;;3.42;;
22656;SDS011;11495;55.610;12.100;2023-04-06T11:37:07;5.33;;;3.23;;
22656;SDS011;11495;55.610;12.100;2023-04-06T11:39:37;4.40;;;3.20;;
22656;SDS011;11495;55.610;12.100;2023-04-06T11:42:03;5.62;;;3.60;;
22656;SDS011;11495;55.610;12.100;2023-04-06T11:44:33;7.07;;;3.50;;
22656;SDS011;11495;55.610;12.100;2023-04-06T11:47:00;6.70;;;3.70;;
22656;SDS011;11495;55.610;12.100;2023-04-06T11:49:32;4.28;;;3.35;;
22656;SDS011;11495;55.610;12.100;2023-04-06T11:51:57;7.30;;;4.32;;
22656;SDS011;11495;55.610;12.100;2023-04-06T11:54:33;6.93;;;4.28;;
22656;SDS011;11495;55.610;12.100;2023-04-06T11:56:58;5.80;;;3.80;;
22656;SDS011;11495;55.610;12.100;2023-04-06T11:59:25;6.97;;;4.82;;
22656;SDS011;11495;55.610;12.100;2023-04-06T12:01:52;7.15;;;3.97;;
22656;SDS011;11495;55.610;12.100;2023-04-06T12:04:18;6.25;;;4.60;;
22656;SDS011;11495;55.610;12.100;2023-04-06T12:06:43;8.20;;;4.60;;
22656;SDS011;11495;55.610;12.100;2023-04-06T12:09:08;7.77;;;4.13;;
22656;SDS011;11495;55.610;12.100;2023-04-06T12:11:34;6.43;;;5.10;;
22656;SDS011;11495;55.610;12.100;2023-04-06T12:13:59;6.80;;;5.37;;
22656;SDS011;11495;55.610;12.100;2023-04-06T12:16:26;8.73;;;6.05;;
22656;SDS011;11495;55.610;12.100;2023-04-06T12:18:51;7.83;;;5.30;;
22656;SDS011;11495;55.610;12.100;2023-04-06T12:21:17;6.67;;;5.07;;
22656;SDS011;11495;55.610;12.100;2023-04-06T12:23:42;7.23;;;5.63;;
22656;SDS011;11495;55.610;12.100;2023-04-06T12:26:07;11.07;;;6.00;;
22656;SDS011;11495;55.610;12.100;2023-04-06T12:28:32;7.82;;;6.05;;
22656;SDS011;11495;55.610;12.100;2023-04-06T12:30:58;8.40;;;6.10;;
22656;SDS011;11495;55.610;12.100;2023-04-06T12:33:23;9.10;;;6.65;;
22656;SDS011;11495;55.610;12.100;2023-04-06T12:35:49;9.20;;;6.60;;
22656;SDS011;11495;55.610;12.100;2023-04-06T12:38:15;9.40;;;6.15;;
22656;SDS011;11495;55.610;12.100;2023-04-06T12:40:41;10.15;;;7.15;;
22656;SDS011;11495;55.610;12.100;2023-04-06T12:43:06;9.05;;;6.82;;
22656;SDS011;11495;55.610;12.100;2023-04-06T12:45:31;9.05;;;6.68;;
22656;SDS011;11495;55.610;12.100;2023-04-06T12:47:57;9.63;;;6.60;;
22656;SDS011;11495;55.610;12.100;2023-04-06T12:50:22;11.77;;;7.12;;
22656;SDS011;11495;55.610;12.100;2023-04-06T12:52:47;8.47;;;6.33;;
22656;SDS011;11495;55.610;12.100;2023-04-06T12:55:13;9.60;;;7.20;;
22656;SDS011;11495;55.610;12.100;2023-04-06T12:57:38;10.07;;;6.60;;
22656;SDS011;11495;55.610;12.100;2023-04-06T13:00:04;9.30;;;6.75;;
22656;SDS011;11495;55.610;12.100;2023-04-06T13:02:30;10.88;;;6.90;;
22656;SDS011;11495;55.610;12.100;2023-04-06T13:04:55;8.80;;;7.05;;
22656;SDS011;11495;55.610;12.100;2023-04-06T13:07:21;11.80;;;7.30;;
22656;SDS011;11495;55.610;12.100;2023-04-06T13:09:46;10.23;;;6.82;;
22656;SDS011;11495;55.610;12.100;2023-04-06T13:12:14;7.70;;;6.00;;
22656;SDS011;11495;55.610;12.100;2023-04-06T13:14:39;9.50;;;7.55;;
22656;SDS011;11495;55.610;12.100;2023-04-06T13:17:05;10.77;;;7.50;;
22656;SDS011;11495;55.610;12.100;2023-04-06T13:19:31;8.25;;;6.32;;
22656;SDS011;11495;55.610;12.100;2023-04-06T13:21:56;9.20;;;6.50;;
22656;SDS011;11495;55.610;12.100;2023-04-06T13:24:21;10.83;;;6.77;;
22656;SDS011;11495;55.610;12.100;2023-04-06T13:26:48;9.20;;;6.47;;
22656;SDS011;11495;55.610;12.100;2023-04-06T13:29:13;9.68;;;6.97;;
22656;SDS011;11495;55.610;12.100;2023-04-06T13:31:38;9.93;;;6.80;;
22656;SDS011;11495;55.610;12.100;2023-04-06T13:34:04;9.57;;;7.93;;
22656;SDS011;11495;55.610;12.100;2023-04-06T13:36:29;10.38;;;6.68;;
22656;SDS011;11495;55.610;12.100;2023-04-06T13:38:56;9.60;;;6.65;;
22656;SDS011;11495;55.610;12.100;2023-04-06T13:41:22;9.50;;;6.35;;
22656;SDS011;11495;55.610;12.100;2023-04-06T13:43:47;8.68;;;6.70;;
22656;SDS011;11495;55.610;12.100;2023-04-06T13:46:13;8.10;;;6.40;;
22656;SDS011;11495;55.610;12.100;2023-04-06T13:48:38;9.03;;;6.97;;
22656;SDS011;11495;55.610;12.100;2023-04-06T13:51:10;8.67;;;6.17;;
22656;SDS011;11495;55.610;12.100;2023-04-06T13:53:35;9.52;;;6.20;;
22656;SDS011;11495;55.610;12.100;2023-04-06T13:56:00;9.43;;;6.37;;
22656;SDS011;11495;55.610;12.100;2023-04-06T13:58:26;9.43;;;6.30;;
22656;SDS011;11495;55.610;12.100;2023-04-06T14:00:51;6.90;;;5.23;;
22656;SDS011;11495;55.610;12.100;2023-04-06T14:03:17;9.32;;;6.78;;
22656;SDS011;11495;55.610;12.100;2023-04-06T14:05:42;7.97;;;6.00;;
22656;SDS011;11495;55.610;12.100;2023-04-06T14:08:08;9.43;;;6.47;;
22656;SDS011;11495;55.610;12.100;2023-04-06T14:10:36;12.03;;;7.27;;
22656;SDS011;11495;55.610;12.100;2023-04-06T14:13:01;8.50;;;6.03;;
22656;SDS011;11495;55.610;12.100;2023-04-06T14:15:27;9.75;;;7.05;;
22656;SDS011;11495;55.610;12.100;2023-04-06T14:17:53;9.45;;;7.15;;
22656;SDS011;11495;55.610;12.100;2023-04-06T14:20:19;8.80;;;6.20;;
22656;SDS011;11495;55.610;12.100;2023-04-06T14:22:44;10.07;;;7.80;;
22656;SDS011;11495;55.610;12.100;2023-04-06T14:25:09;11.93;;;7.33;;
22656;SDS011;11495;55.610;12.100;2023-04-06T14:27:36;8.55;;;6.18;;
22656;SDS011;11495;55.610;12.100;2023-04-06T14:30:01;9.82;;;6.32;;
22656;SDS011;11495;55.610;12.100;2023-04-06T14:32:26;10.93;;;6.50;;
22656;SDS011;11495;55.610;12.100;2023-04-06T14:34:52;13.83;;;7.03;;